createdAt,value
2017-10-05T00:00:29.487Z,8.10
2017-10-05T00:02:57.779Z,8.10
2017-10-05T00:05:25.600Z,7.87
2017-10-05T00:07:53.167Z,8.07
2017-10-05T00:10:20.690Z,8.13
2017-10-05T00:12:48.214Z,8.40
2017-10-05T00:15:16.458Z,8.70
2017-10-05T00:17:43.993Z,9.13
2017-10-05T00:20:11.531Z,8.77
2017-10-05T00:22:39.079Z,8.77
2017-10-05T00:25:06.691Z,8.60
2017-10-05T00:27:34.227Z,8.13
2017-10-05T00:30:01.800Z,8.50
2017-10-05T00:32:30.106Z,9.20
2017-10-05T00:34:57.635Z,8.50
2017-10-05T00:37:26.008Z,8.20
2017-10-05T00:39:53.549Z,8.50
2017-10-05T00:42:21.107Z,8.80
2017-10-05T00:44:48.659Z,8.97
2017-10-05T00:47:17.263Z,8.77
2017-10-05T00:49:44.791Z,8.77
2017-10-05T00:52:12.348Z,9.33
2017-10-05T00:54:39.936Z,8.80
2017-10-05T00:57:07.475Z,9.40
2017-10-05T00:59:35.056Z,8.60
2017-10-05T01:02:02.593Z,9.50
2017-10-05T01:04:30.128Z,9.20
2017-10-05T01:06:57.826Z,9.33
2017-10-05T01:09:25.356Z,9.67
2017-10-05T01:11:52.891Z,9.47
2017-10-05T01:16:58.075Z,8.87
2017-10-05T01:19:25.603Z,8.75
2017-10-05T01:21:53.146Z,9.90
2017-10-05T01:24:21.470Z,9.30
2017-10-05T01:26:48.994Z,9.50
2017-10-05T01:29:17.295Z,9.70
2017-10-05T01:31:44.854Z,10.10
2017-10-05T01:34:12.422Z,9.03
2017-10-05T01:36:39.963Z,9.80
2017-10-05T01:39:07.571Z,9.23
2017-10-05T01:41:35.112Z,9.57
2017-10-05T01:44:02.648Z,9.80
2017-10-05T01:46:30.203Z,9.60
2017-10-05T01:48:57.739Z,9.90
2017-10-05T01:51:26.047Z,9.33
2017-10-05T01:53:53.644Z,9.33
2017-10-05T01:56:21.186Z,9.10
2017-10-05T01:58:48.722Z,9.70
2017-10-05T02:01:16.499Z,9.10
2017-10-05T02:03:44.031Z,9.10
2017-10-05T02:06:11.564Z,10.50
2017-10-05T02:08:39.392Z,10.33
2017-10-05T02:11:06.934Z,10.17
2017-10-05T02:13:34.467Z,10.35
2017-10-05T02:16:02.796Z,10.60
2017-10-05T02:18:30.335Z,11.00
2017-10-05T02:21:01.255Z,10.60
2017-10-05T02:23:29.606Z,10.55
2017-10-05T02:25:57.146Z,10.80
2017-10-05T02:28:24.687Z,10.93
2017-10-05T02:30:52.238Z,10.43
2017-10-05T02:33:19.767Z,11.23
2017-10-05T02:35:47.346Z,10.63
2017-10-05T02:38:16.604Z,12.13
2017-10-05T02:40:44.145Z,10.30
2017-10-05T02:43:11.681Z,10.47
2017-10-05T02:45:39.307Z,11.07
2017-10-05T02:48:07.615Z,11.30
2017-10-05T02:50:35.217Z,10.80
2017-10-05T02:53:02.783Z,11.07
2017-10-05T02:55:30.314Z,12.20
2017-10-05T02:57:57.852Z,10.90
2017-10-05T03:00:25.415Z,11.82
2017-10-05T03:02:52.951Z,12.17
2017-10-05T03:05:21.267Z,12.80
2017-10-05T03:07:48.851Z,11.50
2017-10-05T03:10:17.943Z,11.88
2017-10-05T03:12:45.497Z,12.25
2017-10-05T03:15:30.168Z,11.70
2017-10-05T03:20:36.955Z,12.27
2017-10-05T03:23:04.493Z,12.90
2017-10-05T03:25:32.145Z,12.10
2017-10-05T03:27:59.743Z,11.97
2017-10-05T03:30:27.300Z,11.63
2017-10-05T03:32:54.839Z,12.17
2017-10-05T03:35:22.407Z,11.90
2017-10-05T03:37:49.945Z,12.37
2017-10-05T03:40:17.479Z,12.52
2017-10-05T03:42:45.794Z,13.07
2017-10-05T03:45:24.356Z,11.20
2017-10-05T03:50:55.915Z,11.17
2017-10-05T03:53:23.447Z,11.40
2017-10-05T03:55:50.975Z,11.10
2017-10-05T03:58:18.532Z,10.90
2017-10-05T04:00:46.067Z,11.17
2017-10-05T04:03:26.195Z,10.60
2017-10-05T04:09:13.879Z,10.73
2017-10-05T04:11:41.763Z,10.07
2017-10-05T04:14:09.295Z,10.27
2017-10-05T04:16:36.856Z,10.30
2017-10-05T04:19:04.577Z,12.10
2017-10-05T04:21:32.107Z,10.27
2017-10-05T04:24:00.424Z,8.87
2017-10-05T04:26:27.970Z,8.60
2017-10-05T04:28:55.504Z,8.07
2017-10-05T04:31:24.016Z,8.60
2017-10-05T04:33:52.906Z,9.23
2017-10-05T04:36:20.759Z,9.03
2017-10-05T04:38:48.332Z,9.07
2017-10-05T04:41:16.435Z,7.97
2017-10-05T04:43:43.961Z,8.80
2017-10-05T04:46:11.527Z,7.50
2017-10-05T04:48:39.064Z,8.07
2017-10-05T04:51:06.600Z,8.50
2017-10-05T04:53:34.187Z,9.63
2017-10-05T04:56:01.719Z,8.10
2017-10-05T04:58:29.256Z,9.63
2017-10-05T05:00:56.811Z,9.60
2017-10-05T05:03:24.330Z,8.57
2017-10-05T05:05:51.859Z,9.00
2017-10-05T05:08:19.459Z,7.47
2017-10-05T05:10:46.991Z,5.83
2017-10-05T05:13:16.484Z,6.22
2017-10-05T05:15:44.081Z,5.37
2017-10-05T05:18:11.611Z,5.20
2017-10-05T05:20:39.131Z,4.20
2017-10-05T05:23:06.683Z,4.03
2017-10-05T05:25:34.222Z,4.00
2017-10-05T05:28:01.747Z,3.50
2017-10-05T05:30:29.306Z,3.93
2017-10-05T05:32:57.595Z,3.23
2017-10-05T05:35:25.118Z,3.93
2017-10-05T05:37:52.859Z,3.83
2017-10-05T05:40:20.387Z,4.18
2017-10-05T05:42:47.913Z,4.23
2017-10-05T05:45:16.486Z,3.60
2017-10-05T05:47:44.016Z,4.20
2017-10-05T05:50:11.548Z,4.12
2017-10-05T05:52:39.107Z,4.07
2017-10-05T05:55:06.631Z,4.10
2017-10-05T05:57:34.160Z,4.70
2017-10-05T06:00:01.747Z,4.63
2017-10-05T06:02:29.274Z,5.07
2017-10-05T06:04:56.803Z,3.67
2017-10-05T06:07:24.354Z,3.97
2017-10-05T06:09:51.887Z,3.53
2017-10-05T06:12:19.411Z,3.13
2017-10-05T06:14:47.183Z,3.70
2017-10-05T06:17:17.150Z,3.60
2017-10-05T06:19:45.440Z,4.00
2017-10-05T06:22:18.615Z,4.10
2017-10-05T06:30:56.171Z,3.80
2017-10-05T06:33:23.704Z,3.80
2017-10-05T06:35:52.023Z,4.43
2017-10-05T06:38:19.664Z,3.65
2017-10-05T06:40:47.195Z,3.87
2017-10-05T06:43:15.577Z,3.35
2017-10-05T06:45:43.900Z,3.17
2017-10-05T06:48:11.435Z,4.00
2017-10-05T06:50:38.968Z,3.97
2017-10-05T06:53:06.519Z,3.20
2017-10-05T06:55:34.051Z,3.63
2017-10-05T06:58:01.578Z,3.50
2017-10-05T07:00:29.150Z,3.10
2017-10-05T07:02:56.667Z,3.57
2017-10-05T07:05:24.193Z,3.30
2017-10-05T07:07:51.748Z,3.60
2017-10-05T07:10:19.275Z,3.83
2017-10-05T07:12:46.806Z,3.40
2017-10-05T07:15:15.766Z,3.53
2017-10-05T07:17:43.299Z,3.60
2017-10-05T07:20:10.839Z,4.17
2017-10-05T07:22:38.426Z,3.95
2017-10-05T07:25:05.963Z,3.50
2017-10-05T07:27:33.504Z,3.37
2017-10-05T07:30:02.211Z,3.57
2017-10-05T07:32:29.740Z,2.80
2017-10-05T07:34:57.262Z,3.07
2017-10-05T07:37:24.808Z,3.23
2017-10-05T07:39:52.334Z,3.10
2017-10-05T07:42:19.860Z,2.40
2017-10-05T07:44:47.439Z,3.05
2017-10-05T07:47:16.394Z,2.80
2017-10-05T07:49:43.916Z,2.50
2017-10-05T07:52:11.467Z,2.70
2017-10-05T07:54:38.991Z,2.90
2017-10-05T07:57:06.522Z,2.87
2017-10-05T07:59:34.084Z,2.47
2017-10-05T08:02:01.656Z,2.20
2017-10-05T08:04:29.196Z,3.10
2017-10-05T08:06:56.886Z,2.90
2017-10-05T08:09:24.439Z,2.35
2017-10-05T08:11:51.980Z,2.73
2017-10-05T08:14:19.551Z,2.75
2017-10-05T08:16:47.243Z,2.20
2017-10-05T08:19:16.406Z,2.10
2017-10-05T08:21:43.960Z,2.70
2017-10-05T08:24:11.483Z,2.20
2017-10-05T08:26:39.008Z,2.63
2017-10-05T08:29:06.587Z,2.30
2017-10-05T08:31:34.112Z,2.30
2017-10-05T08:34:01.649Z,2.40
2017-10-05T08:36:29.213Z,2.00
2017-10-05T08:38:56.743Z,2.27
2017-10-05T08:41:24.284Z,2.75
2017-10-05T08:43:51.838Z,2.10
2017-10-05T08:46:19.379Z,2.47
2017-10-05T08:48:46.907Z,3.03
2017-10-05T08:51:15.495Z,2.00
2017-10-05T08:53:43.018Z,2.20
2017-10-05T08:56:11.315Z,2.42
2017-10-05T08:58:38.919Z,2.00
2017-10-05T09:01:06.438Z,2.03
2017-10-05T09:03:33.975Z,2.10
2017-10-05T09:06:02.291Z,2.28
2017-10-05T09:08:30.579Z,2.00
2017-10-05T09:10:58.111Z,2.03
2017-10-05T09:13:25.698Z,2.17
2017-10-05T09:15:53.223Z,1.70
2017-10-05T09:18:20.940Z,2.10
2017-10-05T09:20:48.504Z,2.60
2017-10-05T09:23:16.555Z,1.70
2017-10-05T09:25:44.074Z,1.83
2017-10-05T09:28:12.395Z,2.00
2017-10-05T09:30:39.976Z,3.23
2017-10-05T09:33:07.499Z,1.85
2017-10-05T09:35:35.622Z,1.67
2017-10-05T09:38:03.160Z,1.80
2017-10-05T09:40:30.683Z,2.07
2017-10-05T09:42:58.240Z,1.77
2017-10-05T09:45:25.771Z,1.77
2017-10-05T09:47:53.295Z,2.50
2017-10-05T09:50:20.843Z,1.50
2017-10-05T09:52:48.384Z,1.83
2017-10-05T09:55:17.247Z,2.07
2017-10-05T09:57:44.819Z,2.00
2017-10-05T10:00:12.338Z,1.60
2017-10-05T10:02:39.863Z,2.10
2017-10-05T10:05:07.412Z,1.53
2017-10-05T10:07:34.972Z,1.83
2017-10-05T10:10:02.518Z,2.00
2017-10-05T10:12:30.075Z,1.73
2017-10-05T10:14:57.603Z,2.33
2017-10-05T10:17:25.135Z,1.80
2017-10-05T10:19:53.187Z,2.23
2017-10-05T10:22:20.719Z,1.90
2017-10-05T10:24:48.297Z,1.80
2017-10-05T10:27:16.535Z,2.15
2017-10-05T10:29:44.055Z,1.90
2017-10-05T10:32:11.574Z,1.77
2017-10-05T10:34:39.144Z,2.37
2017-10-05T10:37:06.673Z,2.40
2017-10-05T10:39:34.291Z,1.80
2017-10-05T10:42:01.900Z,1.63
2017-10-05T10:44:29.423Z,1.60
2017-10-05T10:46:56.947Z,1.80
2017-10-05T10:49:24.512Z,1.95
2017-10-05T10:51:52.039Z,1.80
2017-10-05T10:54:19.568Z,1.70
2017-10-05T10:56:47.127Z,2.00
2017-10-05T10:59:16.415Z,1.83
2017-10-05T11:01:43.953Z,1.57
2017-10-05T11:04:11.534Z,2.17
2017-10-05T11:06:39.064Z,1.80
2017-10-05T11:09:06.591Z,1.73
2017-10-05T11:11:34.911Z,1.92
2017-10-05T11:14:02.434Z,2.00
2017-10-05T11:16:30.731Z,1.30
2017-10-05T11:18:58.323Z,1.80
2017-10-05T11:21:25.995Z,1.70
2017-10-05T11:23:53.536Z,1.98
2017-10-05T11:26:21.130Z,2.00
2017-10-05T11:28:48.668Z,1.80
2017-10-05T11:31:16.446Z,1.87
2017-10-05T11:33:43.995Z,1.40
2017-10-05T11:36:11.528Z,1.77
2017-10-05T11:38:39.063Z,1.70
2017-10-05T11:41:06.699Z,1.90
2017-10-05T11:43:34.227Z,1.77
2017-10-05T11:46:01.756Z,2.47
2017-10-05T11:48:29.344Z,2.00
2017-10-05T11:50:56.876Z,1.53
2017-10-05T11:53:24.405Z,1.50
2017-10-05T11:55:52.052Z,2.00
2017-10-05T11:58:19.607Z,1.60
2017-10-05T12:00:47.139Z,2.23
2017-10-05T12:03:15.491Z,3.03
2017-10-05T12:05:43.052Z,2.10
2017-10-05T12:08:10.611Z,1.80
2017-10-05T12:10:40.833Z,1.90
2017-10-05T12:13:08.406Z,1.70
2017-10-05T12:15:37.248Z,1.93
2017-10-05T12:18:04.802Z,1.93
2017-10-05T12:20:32.493Z,2.27
2017-10-05T12:23:00.192Z,1.80
2017-10-05T12:25:27.759Z,1.60
2017-10-05T12:27:55.287Z,1.80
2017-10-05T12:30:22.814Z,1.75
2017-10-05T12:32:50.383Z,1.80
2017-10-05T12:35:17.949Z,2.30
2017-10-05T12:37:45.496Z,1.47
2017-10-05T12:40:15.375Z,2.25
2017-10-05T12:42:42.928Z,1.90
2017-10-05T12:45:10.455Z,2.10
2017-10-05T12:47:38.108Z,1.50
2017-10-05T12:50:06.409Z,1.60
2017-10-05T12:52:33.942Z,2.40
2017-10-05T12:55:02.288Z,1.93
2017-10-05T12:57:29.827Z,1.80
2017-10-05T12:59:57.354Z,1.77
2017-10-05T13:02:25.687Z,1.77
2017-10-05T13:04:53.286Z,1.60
2017-10-05T13:07:21.589Z,2.18
2017-10-05T13:09:49.215Z,2.00
2017-10-05T13:12:17.529Z,1.93
2017-10-05T13:14:45.871Z,1.50
2017-10-05T13:17:15.190Z,1.80
2017-10-05T13:19:42.719Z,1.80
2017-10-05T13:22:10.272Z,1.70
2017-10-05T13:24:38.251Z,1.67
2017-10-05T13:27:06.563Z,1.93
2017-10-05T13:29:34.107Z,1.40
2017-10-05T13:32:02.452Z,1.70
2017-10-05T13:34:30.098Z,2.23
2017-10-05T13:36:57.652Z,2.23
2017-10-05T13:39:25.266Z,1.87
2017-10-05T13:41:53.796Z,1.60
2017-10-05T13:44:21.372Z,2.03
2017-10-05T13:46:48.930Z,2.10
2017-10-05T13:49:16.472Z,1.80
2017-10-05T13:51:44.012Z,2.07
2017-10-05T13:54:11.568Z,1.83
2017-10-05T13:56:39.099Z,1.93
2017-10-05T13:59:06.631Z,1.80
2017-10-05T14:01:34.211Z,2.00
2017-10-05T14:04:01.739Z,1.70
2017-10-05T14:06:29.276Z,1.80
2017-10-05T14:08:57.881Z,1.70
2017-10-05T14:11:25.410Z,3.25
2017-10-05T14:13:53.000Z,2.00
2017-10-05T14:16:20.575Z,1.67
2017-10-05T14:18:48.104Z,1.53
2017-10-05T14:21:16.409Z,2.27
2017-10-05T14:23:43.987Z,2.10
2017-10-05T14:26:11.963Z,2.10
2017-10-05T14:28:39.520Z,2.00
2017-10-05T14:31:07.084Z,1.50
2017-10-05T14:33:34.612Z,1.70
2017-10-05T14:36:03.726Z,1.87
2017-10-05T14:38:32.785Z,1.43
2017-10-05T14:41:00.324Z,1.77
2017-10-05T14:43:29.336Z,1.77
2017-10-05T14:45:56.994Z,1.70
2017-10-05T14:48:24.527Z,2.70
2017-10-05T14:50:53.097Z,2.10
2017-10-05T14:53:21.604Z,1.98
2017-10-05T14:55:49.151Z,2.03
2017-10-05T14:58:17.751Z,1.80
2017-10-05T15:00:45.310Z,1.80
2017-10-05T15:03:14.555Z,1.95
2017-10-05T15:05:42.095Z,2.03
2017-10-05T15:08:11.811Z,2.20
2017-10-05T15:10:39.404Z,1.57
2017-10-05T15:13:06.943Z,2.30
2017-10-05T15:15:34.579Z,1.87
2017-10-05T15:18:02.119Z,1.93
2017-10-05T15:20:29.667Z,1.73
2017-10-05T15:22:58.003Z,1.80
2017-10-05T15:25:25.535Z,1.40
2017-10-05T15:27:53.492Z,1.90
2017-10-05T15:30:21.100Z,1.87
2017-10-05T15:32:48.751Z,1.80
2017-10-05T15:35:17.350Z,1.90
2017-10-05T15:37:44.935Z,2.10
2017-10-05T15:40:12.492Z,2.45
2017-10-05T15:42:40.024Z,1.70
2017-10-05T15:45:07.913Z,2.00
2017-10-05T15:47:43.581Z,2.30
2017-10-05T15:50:13.712Z,2.43
2017-10-05T15:52:41.326Z,2.03
2017-10-05T15:55:08.921Z,1.80
2017-10-05T15:57:36.495Z,1.85
2017-10-05T16:00:04.893Z,2.10
2017-10-05T16:02:32.456Z,2.17
2017-10-05T16:05:00.088Z,2.40
2017-10-05T16:07:27.859Z,2.70
2017-10-05T16:09:55.395Z,1.60
2017-10-05T16:12:24.141Z,2.08
2017-10-05T16:14:51.720Z,3.07
2017-10-05T16:17:19.355Z,2.00
2017-10-05T16:19:46.923Z,2.47
2017-10-05T16:22:16.283Z,1.75
2017-10-05T16:24:44.480Z,1.90
2017-10-05T16:27:12.047Z,2.23
2017-10-05T16:29:39.900Z,1.67
2017-10-05T16:32:08.224Z,2.45
2017-10-05T16:34:35.952Z,2.10
2017-10-05T16:37:03.479Z,2.40
2017-10-05T16:39:31.805Z,2.93
2017-10-05T16:41:59.377Z,2.00
2017-10-05T16:44:26.910Z,7.70
2017-10-05T16:46:54.436Z,1.90
2017-10-05T16:49:22.011Z,1.90
2017-10-05T16:51:49.552Z,1.80
2017-10-05T16:54:17.856Z,1.93
2017-10-05T16:56:45.434Z,1.80
2017-10-05T16:59:24.976Z,2.00
2017-10-05T17:04:43.852Z,2.47
2017-10-05T17:07:11.414Z,3.07
2017-10-05T17:09:39.019Z,2.00
2017-10-05T17:12:06.603Z,1.80
2017-10-05T17:14:34.155Z,2.00
2017-10-05T17:17:01.676Z,2.43
2017-10-05T17:19:29.262Z,1.87
2017-10-05T17:21:57.561Z,3.33
2017-10-05T17:24:25.093Z,2.10
2017-10-05T17:26:52.660Z,2.33
2017-10-05T17:29:20.953Z,2.60
2017-10-05T17:31:48.751Z,2.78
2017-10-05T17:34:16.487Z,3.40
2017-10-05T17:36:44.016Z,2.90
2017-10-05T17:39:12.316Z,4.78
2017-10-05T17:41:39.878Z,2.63
2017-10-05T17:44:07.419Z,2.40
2017-10-05T17:46:35.786Z,2.23
2017-10-05T17:49:04.114Z,4.27
2017-10-05T17:51:31.816Z,2.43
2017-10-05T17:54:00.499Z,2.13
2017-10-05T17:56:29.140Z,2.37
2017-10-05T17:58:57.551Z,2.20
2017-10-05T18:01:25.194Z,1.85
2017-10-05T18:03:53.866Z,1.83
2017-10-05T18:06:21.472Z,1.83
2017-10-05T18:08:49.141Z,2.23
2017-10-05T18:11:16.703Z,2.00
2017-10-05T18:13:45.330Z,2.00
2017-10-05T18:16:13.985Z,2.00
2017-10-05T18:18:41.870Z,1.90
2017-10-05T18:21:10.285Z,1.67
2017-10-05T18:23:37.918Z,2.07
2017-10-05T18:26:05.551Z,1.93
2017-10-05T18:28:33.095Z,2.00
2017-10-05T18:31:01.222Z,2.57
2017-10-05T18:33:31.314Z,2.12
2017-10-05T18:35:59.607Z,2.20
2017-10-05T18:38:27.131Z,2.10
2017-10-05T18:40:54.712Z,2.37
2017-10-05T18:43:22.334Z,2.40
2017-10-05T18:45:49.875Z,2.17
2017-10-05T18:48:17.435Z,2.17
2017-10-05T18:50:45.052Z,2.60
2017-10-05T18:53:13.559Z,2.47
2017-10-05T18:55:41.295Z,2.40
2017-10-05T18:58:09.595Z,2.10
2017-10-05T19:00:37.123Z,2.60
2017-10-05T19:03:04.759Z,2.40
2017-10-05T19:05:32.364Z,2.40
2017-10-05T19:07:59.993Z,2.37
2017-10-05T19:10:27.626Z,1.60
2017-10-05T19:12:55.293Z,1.83
2017-10-05T19:15:22.969Z,2.13
2017-10-05T19:17:50.564Z,2.17
2017-10-05T19:20:18.261Z,2.30
2017-10-05T19:22:45.837Z,2.37
2017-10-05T19:25:26.576Z,3.00
2017-10-05T19:30:54.552Z,2.83
2017-10-05T19:33:22.128Z,2.10
2017-10-05T19:35:49.657Z,2.50
2017-10-05T19:38:17.335Z,2.77
2017-10-05T19:40:44.892Z,2.93
2017-10-05T19:43:12.428Z,2.33
2017-10-05T19:45:40.078Z,2.60
2017-10-05T19:48:07.638Z,2.73
2017-10-05T19:50:35.173Z,3.10
2017-10-05T19:53:02.732Z,3.27
2017-10-05T19:55:30.272Z,3.10
2017-10-05T19:57:57.808Z,3.03
2017-10-05T20:00:25.381Z,3.70
2017-10-05T20:02:53.731Z,3.77
2017-10-05T20:05:21.503Z,3.10
2017-10-05T20:07:49.164Z,3.00
2017-10-05T20:10:16.701Z,3.80
2017-10-05T20:12:44.312Z,2.90
2017-10-05T20:15:30.688Z,3.13
2017-10-05T20:18:00.461Z,5.20
2017-10-05T20:20:32.036Z,5.50
2017-10-05T20:26:13.005Z,6.10
2017-10-05T20:28:42.362Z,5.47
2017-10-05T20:31:15.403Z,4.90
2017-10-05T20:33:42.983Z,3.87
2017-10-05T20:36:10.524Z,4.28
2017-10-05T20:38:38.200Z,5.20
2017-10-05T20:41:05.756Z,6.20
2017-10-05T20:43:33.296Z,9.48
2017-10-05T20:46:00.879Z,7.63
2017-10-05T20:48:28.417Z,6.55
2017-10-05T20:50:56.018Z,5.50
2017-10-05T20:53:23.640Z,5.22
2017-10-05T20:55:51.180Z,4.50
2017-10-05T20:58:18.740Z,4.13
2017-10-05T21:00:46.432Z,4.47
2017-10-05T21:03:15.480Z,4.35
2017-10-05T21:05:43.020Z,5.70
2017-10-05T21:08:10.632Z,4.80
2017-10-05T21:10:38.316Z,5.60
2017-10-05T21:13:05.853Z,4.70
2017-10-05T21:15:34.211Z,5.03
2017-10-05T21:18:01.761Z,5.60
2017-10-05T21:20:30.124Z,4.90
2017-10-05T21:22:57.708Z,4.80
2017-10-05T21:25:25.252Z,5.57
2017-10-05T21:27:53.556Z,6.27
2017-10-05T21:30:21.132Z,5.80
2017-10-05T21:32:48.665Z,6.20
2017-10-05T21:35:16.479Z,5.90
2017-10-05T21:37:44.668Z,5.90
2017-10-05T21:40:13.908Z,5.27
2017-10-05T21:42:41.440Z,5.10
2017-10-05T21:45:09.004Z,4.93
2017-10-05T21:47:36.605Z,5.63
2017-10-05T21:50:04.145Z,6.50
2017-10-05T21:52:31.748Z,5.73
2017-10-05T21:54:59.289Z,5.37
2017-10-05T21:57:26.824Z,5.43
2017-10-05T21:59:54.375Z,5.80
2017-10-05T22:02:21.912Z,6.10
2017-10-05T22:04:49.467Z,5.35
2017-10-05T22:07:17.033Z,6.17
2017-10-05T22:09:44.564Z,6.57
2017-10-05T22:12:12.100Z,5.50
2017-10-05T22:14:39.696Z,6.80
2017-10-05T22:17:07.236Z,6.10
2017-10-05T22:19:34.772Z,6.63
2017-10-05T22:22:02.341Z,6.00
2017-10-05T22:24:29.885Z,6.73
2017-10-05T22:26:57.434Z,6.60
2017-10-05T22:29:25.000Z,7.50
2017-10-05T22:31:52.544Z,7.17
2017-10-05T22:34:20.088Z,6.87
2017-10-05T22:36:47.700Z,7.60
2017-10-05T22:39:17.672Z,6.85
2017-10-05T22:41:45.209Z,6.70
2017-10-05T22:44:13.688Z,7.57
2017-10-05T22:46:41.228Z,7.80
2017-10-05T22:49:08.760Z,7.57
2017-10-05T22:51:36.336Z,7.80
2017-10-05T22:54:03.872Z,8.13
2017-10-05T22:56:31.427Z,6.90
2017-10-05T22:58:59.775Z,7.83
2017-10-05T23:01:27.320Z,6.97
2017-10-05T23:03:54.867Z,7.40
2017-10-05T23:06:22.448Z,8.53
2017-10-05T23:08:49.975Z,8.20
2017-10-05T23:11:17.515Z,7.70
2017-10-05T23:13:45.072Z,6.57
2017-10-05T23:16:14.296Z,7.57
2017-10-05T23:18:41.845Z,7.37
2017-10-05T23:21:09.427Z,7.93
2017-10-05T23:23:36.985Z,7.10
2017-10-05T23:26:04.536Z,7.65
2017-10-05T23:28:32.100Z,8.70
2017-10-05T23:30:59.641Z,9.13
2017-10-05T23:33:27.171Z,8.38
2017-10-05T23:35:55.492Z,8.40
2017-10-05T23:38:23.793Z,9.57
2017-10-05T23:40:51.456Z,9.60
2017-10-05T23:43:19.053Z,10.10
2017-10-05T23:45:46.583Z,9.20
2017-10-05T23:48:28.989Z,9.60
2017-10-05T23:53:26.272Z,8.90
2017-10-05T23:55:53.832Z,8.43
2017-10-05T23:58:21.366Z,8.10
